Time;durP1;ratioP1;P1;durP2;ratioP2;P2;SDS_P1;SDS_P2;PMS_P1;PMS_P2;Temp;Humidity;BMP_temperature;BMP_pressure;BME280_temperature;BME280_humidity;BME280_pressure;Samples;Min_cycle;Max_cycle;Signal;HPM_P1;HPM_P2
2024/01/05 00:00:59;;;;;;;8.57;2.58;;;8.50;99.90;;;;;;5038272;28;20035;-48
2024/01/05 00:03:24;;;;;;;11.27;3.25;;;8.50;99.90;;;;;;5037123;28;20374;-45
2024/01/05 00:05:50;;;;;;;17.05;4.25;;;8.50;99.90;;;;;;5032499;28;20431;-45
2024/01/05 00:08:16;;;;;;;8.70;3.00;;;8.50;99.90;;;;;;5033711;28;20033;-46
2024/01/05 00:10:41;;;;;;;9.30;3.47;;;8.60;99.90;;;;;;5049798;28;20036;-44
2024/01/05 00:13:07;;;;;;;12.98;3.80;;;8.60;99.90;;;;;;5022260;28;20029;-48
2024/01/05 00:15:32;;;;;;;13.43;2.88;;;8.60;99.90;;;;;;5051783;28;20025;-47
2024/01/05 00:17:58;;;;;;;11.30;2.97;;;8.60;99.90;;;;;;5073192;23;20060;-58
2024/01/05 00:20:23;;;;;;;13.80;3.72;;;8.60;99.90;;;;;;5054134;28;20492;-57
2024/01/05 00:22:49;;;;;;;8.35;2.55;;;8.50;99.90;;;;;;5053977;28;20060;-54
2024/01/05 00:25:16;;;;;;;9.75;3.10;;;8.40;99.90;;;;;;5036248;28;20388;-54
2024/01/05 00:27:42;;;;;;;14.23;2.78;;;8.40;99.90;;;;;;5025055;28;20032;-56
2024/01/05 00:30:08;;;;;;;9.88;2.83;;;8.50;99.90;;;;;;5016248;28;20489;-55
2024/01/05 00:32:34;;;;;;;10.25;3.58;;;8.50;99.90;;;;;;5016234;28;20018;-52
2024/01/05 00:34:59;;;;;;;13.45;3.33;;;8.50;99.90;;;;;;5033808;28;20029;-55
2024/01/05 00:37:24;;;;;;;11.65;3.40;;;8.50;99.90;;;;;;5016371;28;20147;-53
2024/01/05 00:39:50;;;;;;;11.52;3.03;;;8.40;99.90;;;;;;5033766;28;20030;-52
2024/01/05 00:42:16;;;;;;;12.55;2.75;;;8.40;99.90;;;;;;5016070;28;20028;-57
2024/01/05 00:44:41;;;;;;;8.95;2.70;;;8.40;99.90;;;;;;5015187;28;20020;-57
2024/01/05 00:47:07;;;;;;;10.88;2.63;;;8.40;99.90;;;;;;5033961;28;20482;-57
2024/01/05 00:49:32;;;;;;;7.25;3.65;;;8.30;99.90;;;;;;5034061;28;20025;-57
2024/01/05 00:51:58;;;;;;;12.38;4.45;;;8.30;99.90;;;;;;5016156;28;20108;-54
2024/01/05 00:54:25;;;;;;;10.43;2.97;;;8.30;99.90;;;;;;5033652;28;20045;-60
2024/01/05 00:56:51;;;;;;;14.27;3.45;;;8.40;99.90;;;;;;5034158;28;20113;-54
2024/01/05 00:59:19;;;;;;;14.75;3.72;;;8.30;99.90;;;;;;5016032;28;20113;-54
2024/01/05 01:01:45;;;;;;;9.10;3.28;;;8.30;99.90;;;;;;5033741;28;20432;-56
2024/01/05 01:04:10;;;;;;;8.57;2.88;;;8.30;99.90;;;;;;5016058;28;20048;-58
2024/01/05 01:06:36;;;;;;;8.02;3.08;;;8.30;99.90;;;;;;5033563;28;20079;-59
2024/01/05 01:09:01;;;;;;;9.13;2.80;;;8.20;99.90;;;;;;5033749;28;20068;-53
2024/01/05 01:11:27;;;;;;;8.88;3.78;;;8.20;99.90;;;;;;5033451;28;20045;-56
2024/01/05 01:13:53;;;;;;;7.35;2.67;;;8.20;99.90;;;;;;5033448;28;20063;-52
2024/01/05 01:16:18;;;;;;;12.65;3.10;;;8.10;99.90;;;;;;5033418;28;20020;-57
2024/01/05 01:18:44;;;;;;;10.30;2.83;;;8.10;99.90;;;;;;5033105;28;20519;-55
2024/01/05 01:21:09;;;;;;;11.10;3.10;;;8.10;99.90;;;;;;5033285;28;20022;-56
2024/01/05 01:23:35;;;;;;;8.95;3.63;;;8.30;99.90;;;;;;5015282;28;20503;-54
2024/01/05 01:26:00;;;;;;;9.48;2.78;;;8.30;99.90;;;;;;5015439;28;20032;-53
2024/01/05 01:28:26;;;;;;;10.38;3.35;;;8.40;99.90;;;;;;5033122;28;20364;-58
2024/01/05 01:30:52;;;;;;;12.35;3.63;;;8.40;99.90;;;;;;5033078;28;20029;-57
2024/01/05 01:33:17;;;;;;;7.03;2.90;;;8.30;99.90;;;;;;5032689;28;20079;-58
2024/01/05 01:35:43;;;;;;;12.93;4.43;;;8.30;99.90;;;;;;5032857;28;20037;-55
2024/01/05 01:38:08;;;;;;;12.88;3.90;;;8.20;99.90;;;;;;5015294;28;20018;-54
2024/01/05 01:40:34;;;;;;;9.18;2.70;;;8.10;99.90;;;;;;5032659;28;20075;-55
2024/01/05 01:42:59;;;;;;;15.00;4.38;;;8.10;99.90;;;;;;5032397;28;20048;-59
2024/01/05 01:45:25;;;;;;;13.40;3.17;;;8.10;99.90;;;;;;5014949;28;20032;-52
2024/01/05 01:47:52;;;;;;;11.50;3.30;;;8.10;99.90;;;;;;5014817;28;20489;-52
2024/01/05 01:50:18;;;;;;;13.60;3.35;;;8.10;99.90;;;;;;5014835;28;20401;-56
2024/01/05 01:52:47;;;;;;;12.98;3.15;;;8.00;99.90;;;;;;5032471;28;20029;-57
2024/01/05 01:55:14;;;;;;;11.20;3.88;;;8.00;99.90;;;;;;5014566;28;20115;-56
2024/01/05 01:57:40;;;;;;;10.23;4.45;;;8.00;99.90;;;;;;5032290;28;20040;-55
2024/01/05 02:00:06;;;;;;;15.90;4.03;;;8.00;99.90;;;;;;5032335;28;20392;-54
2024/01/05 02:02:32;;;;;;;15.00;4.57;;;7.90;99.90;;;;;;5032709;28;20047;-57
2024/01/05 02:04:59;;;;;;;8.55;4.18;;;7.90;99.90;;;;;;5032154;28;20035;-60
2024/01/05 02:07:25;;;;;;;10.45;3.47;;;7.90;99.90;;;;;;5014900;28;20112;-57
2024/01/05 02:09:50;;;;;;;12.32;4.38;;;7.80;99.90;;;;;;5032217;28;20481;-59
2024/01/05 02:12:16;;;;;;;12.32;3.78;;;7.70;99.90;;;;;;5032145;28;20036;-52
2024/01/05 02:14:41;;;;;;;14.65;4.60;;;7.80;99.90;;;;;;5032043;28;20104;-55
2024/01/05 02:17:30;;;;;;;15.52;4.80;;;7.70;99.90;;;;;;5014123;28;20079;-56
2024/01/05 02:19:56;;;;;;;12.07;4.97;;;7.60;99.90;;;;;;5031878;28;20507;-57
2024/01/05 02:22:22;;;;;;;16.55;4.78;;;7.50;99.90;;;;;;5014303;28;20381;-52
2024/01/05 02:24:49;;;;;;;15.80;5.25;;;7.60;99.90;;;;;;5014378;28;20021;-57
2024/01/05 02:27:14;;;;;;;10.20;4.13;;;7.60;99.90;;;;;;5032168;28;20029;-54
2024/01/05 02:29:40;;;;;;;17.80;4.43;;;7.60;99.90;;;;;;5032212;28;20052;-55
2024/01/05 02:32:06;;;;;;;16.90;4.18;;;7.60;99.90;;;;;;5031832;28;20120;-58
2024/01/05 02:34:31;;;;;;;13.75;4.20;;;7.60;99.90;;;;;;5013985;28;20053;-56
2024/01/05 02:36:57;;;;;;;17.33;5.10;;;7.60;99.90;;;;;;5031714;28;20029;-58
2024/01/05 02:39:22;;;;;;;16.48;3.65;;;7.50;99.90;;;;;;5031828;28;20063;-56
2024/01/05 02:41:48;;;;;;;19.48;4.25;;;7.50;99.90;;;;;;5013899;28;20619;-57
2024/01/05 02:44:13;;;;;;;13.95;4.18;;;7.50;99.90;;;;;;5013893;28;20025;-61
2024/01/05 02:46:39;;;;;;;15.20;4.03;;;7.50;99.90;;;;;;5031585;28;20025;-58
2024/01/05 02:49:05;;;;;;;17.02;3.97;;;7.50;99.90;;;;;;5031581;28;20032;-57
2024/01/05 02:51:30;;;;;;;8.73;3.22;;;7.60;99.90;;;;;;5031816;28;20048;-57
2024/01/05 02:53:56;;;;;;;16.42;4.60;;;7.60;99.90;;;;;;5031483;28;20456;-60
2024/01/05 02:56:22;;;;;;;12.60;3.15;;;7.60;99.90;;;;;;5031372;28;20237;-57
2024/01/05 02:58:52;;;;;;;12.05;3.47;;;7.50;99.90;;;;;;5031345;28;20029;-58
2024/01/05 03:01:18;;;;;;;9.13;4.05;;;7.50;99.90;;;;;;5013677;28;20022;-56
2024/01/05 03:03:45;;;;;;;12.95;4.15;;;7.50;99.90;;;;;;5031229;28;20440;-53
2024/01/05 03:06:11;;;;;;;14.90;3.38;;;7.60;99.90;;;;;;5012770;28;20460;-54
2024/01/05 03:08:37;;;;;;;10.98;3.15;;;7.60;99.90;;;;;;5031485;28;20055;-55
2024/01/05 03:11:02;;;;;;;12.10;2.95;;;7.60;99.90;;;;;;5013766;28;20026;-59
2024/01/05 03:13:28;;;;;;;13.07;4.18;;;7.70;99.90;;;;;;5013353;28;20022;-57
2024/01/05 03:15:53;;;;;;;9.68;3.20;;;7.70;99.90;;;;;;5031415;28;20028;-55
2024/01/05 03:18:19;;;;;;;13.70;3.40;;;7.70;99.90;;;;;;5031212;28;20117;-60
2024/01/05 03:20:46;;;;;;;15.05;4.55;;;7.60;99.90;;;;;;5031296;28;20037;-57
2024/01/05 03:23:11;;;;;;;14.07;3.70;;;7.60;99.90;;;;;;5031368;28;20542;-58
2024/01/05 03:25:37;;;;;;;9.60;2.97;;;7.60;99.90;;;;;;5013600;28;20025;-60
2024/01/05 03:28:03;;;;;;;10.80;3.83;;;7.50;99.90;;;;;;5031231;28;20024;-56
2024/01/05 03:30:28;;;;;;;14.27;3.22;;;7.60;99.90;;;;;;5031368;28;20037;-57
2024/01/05 03:32:54;;;;;;;5.32;2.85;;;7.70;99.90;;;;;;5013189;28;20032;-52
2024/01/05 03:35:19;;;;;;;6.85;3.03;;;7.70;99.90;;;;;;5031323;28;20494;-58
2024/01/05 03:37:45;;;;;;;10.98;3.00;;;7.70;99.90;;;;;;5013546;28;20025;-54
2024/01/05 03:40:10;;;;;;;17.50;3.20;;;7.70;99.90;;;;;;5031111;28;20366;-58
2024/01/05 03:42:36;;;;;;;11.98;3.20;;;7.70;99.90;;;;;;5013201;28;20022;-57
2024/01/05 03:45:01;;;;;;;10.43;3.03;;;7.70;99.90;;;;;;5030877;28;20099;-56
2024/01/05 03:47:27;;;;;;;12.15;2.97;;;7.70;99.90;;;;;;5031095;28;20064;-56
2024/01/05 03:49:52;;;;;;;7.82;2.83;;;7.70;99.90;;;;;;5031093;28;20083;-54
2024/01/05 03:52:18;;;;;;;7.70;3.03;;;7.70;99.90;;;;;;5013224;28;20501;-54
2024/01/05 03:54:43;;;;;;;13.63;4.68;;;7.70;99.90;;;;;;5030816;28;20080;-52
2024/01/05 03:57:09;;;;;;;12.27;4.00;;;7.70;99.90;;;;;;5031128;28;20482;-54
2024/01/05 03:59:34;;;;;;;13.68;3.78;;;7.70;99.90;;;;;;5030783;28;20034;-55
2024/01/05 04:02:00;;;;;;;14.07;4.00;;;7.70;99.90;;;;;;5030878;28;20080;-59
2024/01/05 04:04:26;;;;;;;11.85;4.90;;;7.70;99.90;;;;;;5030792;28;20018;-56
2024/01/05 04:06:51;;;;;;;12.40;3.92;;;7.80;99.90;;;;;;5030843;28;20076;-57
2024/01/05 04:09:17;;;;;;;14.05;4.28;;;7.70;99.90;;;;;;5030874;28;20044;-56
2024/01/05 04:11:43;;;;;;;10.30;5.05;;;7.80;99.90;;;;;;5030812;28;20098;-60
2024/01/05 04:14:08;;;;;;;7.70;3.72;;;7.80;99.90;;;;;;5030749;28;20029;-55
2024/01/05 04:16:34;;;;;;;7.03;3.45;;;7.80;99.90;;;;;;5012821;28;20030;-57
2024/01/05 04:19:00;;;;;;;8.20;3.92;;;7.80;99.90;;;;;;5033703;28;20030;-58
2024/01/05 04:21:26;;;;;;;5.80;3.00;;;7.80;99.90;;;;;;5016565;28;20017;-55
2024/01/05 04:23:55;;;;;;;9.93;3.17;;;7.70;99.90;;;;;;5034158;28;20270;-57
2024/01/05 04:26:21;;;;;;;9.77;3.55;;;7.80;99.90;;;;;;5034580;28;20024;-54
2024/01/05 04:28:46;;;;;;;7.00;3.03;;;7.80;99.90;;;;;;5034584;28;20068;-56
2024/01/05 04:31:12;;;;;;;8.82;3.95;;;7.80;99.90;;;;;;5016492;28;20044;-54
2024/01/05 04:33:37;;;;;;;9.73;3.17;;;7.80;99.90;;;;;;5034270;28;20116;-58
2024/01/05 04:36:03;;;;;;;10.15;3.03;;;7.80;99.90;;;;;;5016842;28;20025;-55
2024/01/05 04:38:29;;;;;;;10.85;3.38;;;7.80;99.90;;;;;;5034377;28;20026;-53
2024/01/05 04:40:55;;;;;;;6.90;2.65;;;7.90;99.90;;;;;;5034106;28;20460;-56
2024/01/05 04:43:20;;;;;;;10.45;2.78;;;7.90;99.90;;;;;;5034274;28;20061;-55
2024/01/05 04:45:46;;;;;;;13.65;4.03;;;7.90;99.90;;;;;;5034367;28;20390;-57
2024/01/05 04:48:12;;;;;;;7.25;3.50;;;8.00;99.90;;;;;;5016473;28;20048;-55
2024/01/05 04:50:38;;;;;;;18.50;3.85;;;8.00;99.90;;;;;;5016609;28;20021;-59
2024/01/05 04:53:04;;;;;;;8.10;3.72;;;8.00;99.90;;;;;;5033899;28;20075;-57
2024/01/05 04:55:29;;;;;;;10.98;2.83;;;8.00;99.90;;;;;;5016797;28;20026;-54
2024/01/05 04:57:56;;;;;;;12.95;3.65;;;7.90;99.90;;;;;;5034085;28;20029;-56
2024/01/05 05:00:22;;;;;;;18.38;4.10;;;7.90;99.90;;;;;;5033754;28;20485;-57
2024/01/05 05:02:47;;;;;;;7.28;3.28;;;7.90;99.90;;;;;;5033673;28;20029;-55
2024/01/05 05:05:13;;;;;;;7.60;3.78;;;7.90;99.90;;;;;;5033924;28;20029;-59
2024/01/05 05:07:38;;;;;;;12.20;3.08;;;7.90;99.90;;;;;;5033728;28;20025;-55
2024/01/05 05:10:04;;;;;;;8.15;3.10;;;7.90;99.90;;;;;;5034177;28;20431;-57
2024/01/05 05:12:30;;;;;;;7.22;2.95;;;7.80;99.90;;;;;;5033877;28;20041;-56
2024/01/05 05:14:56;;;;;;;19.63;3.78;;;7.90;99.90;;;;;;5033775;28;20029;-57
2024/01/05 05:17:21;;;;;;;11.25;3.53;;;7.90;99.90;;;;;;5033635;28;20231;-55
2024/01/05 05:19:47;;;;;;;12.10;3.80;;;7.90;99.90;;;;;;5015863;28;20588;-55
2024/01/05 05:22:13;;;;;;;12.25;3.88;;;7.90;99.90;;;;;;5033458;28;20456;-56
2024/01/05 05:24:39;;;;;;;11.68;4.05;;;7.90;99.90;;;;;;5033171;28;20061;-55
2024/01/05 05:27:04;;;;;;;7.90;3.55;;;7.90;99.90;;;;;;5033242;28;20022;-59
2024/01/05 05:29:30;;;;;;;11.55;3.35;;;7.90;99.90;;;;;;5032566;28;20034;-57
2024/01/05 05:31:55;;;;;;;7.05;3.40;;;7.90;99.90;;;;;;5033067;28;20029;-57
2024/01/05 05:34:21;;;;;;;9.27;2.72;;;7.80;99.90;;;;;;5033335;28;20033;-54
2024/01/05 05:36:46;;;;;;;10.13;3.38;;;7.80;99.90;;;;;;5033391;28;20374;-55
2024/01/05 05:39:12;;;;;;;12.77;3.88;;;7.70;99.90;;;;;;5033110;28;20022;-57
2024/01/05 05:41:38;;;;;;;12.23;3.83;;;7.80;99.90;;;;;;5032948;28;20021;-57
2024/01/05 05:44:03;;;;;;;9.38;4.85;;;7.80;99.90;;;;;;5033326;28;20036;-57
2024/01/05 05:46:29;;;;;;;14.75;3.30;;;7.70;99.90;;;;;;5032826;28;20035;-53
2024/01/05 05:48:54;;;;;;;13.32;3.75;;;7.70;99.90;;;;;;5033058;28;20108;-56
2024/01/05 05:51:20;;;;;;;6.43;3.25;;;7.70;99.90;;;;;;5033002;28;20033;-60
2024/01/05 05:53:46;;;;;;;11.45;3.47;;;7.80;99.90;;;;;;5032686;28;20429;-56
2024/01/05 05:56:11;;;;;;;14.73;3.95;;;7.80;99.90;;;;;;5032847;28;20026;-57
2024/01/05 05:58:37;;;;;;;10.95;3.90;;;7.80;99.90;;;;;;5015562;28;20064;-56
2024/01/05 06:01:02;;;;;;;9.70;3.47;;;7.80;99.90;;;;;;5032827;28;20029;-53
2024/01/05 06:03:28;;;;;;;8.95;3.65;;;7.80;99.90;;;;;;5032414;28;20317;-56
2024/01/05 06:05:53;;;;;;;9.63;2.45;;;7.70;99.90;;;;;;5032856;28;20052;-56
2024/01/05 06:08:19;;;;;;;8.68;3.22;;;7.70;99.90;;;;;;5032587;28;20415;-55
2024/01/05 06:10:45;;;;;;;9.95;3.30;;;7.70;99.90;;;;;;5032833;28;20048;-57
2024/01/05 06:13:10;;;;;;;10.65;3.00;;;7.70;99.90;;;;;;5032423;28;20072;-57
2024/01/05 06:15:36;;;;;;;10.40;3.10;;;7.70;99.90;;;;;;5015287;28;20022;-56
2024/01/05 06:18:02;;;;;;;6.30;3.03;;;7.70;99.90;;;;;;5032800;28;20463;-54
2024/01/05 06:20:27;;;;;;;18.05;5.88;;;7.80;99.90;;;;;;5032220;28;20530;-56
2024/01/05 06:22:53;;;;;;;9.85;2.78;;;7.80;99.90;;;;;;5032268;28;20022;-53
2024/01/05 06:25:19;;;;;;;11.75;3.20;;;7.80;99.90;;;;;;5032450;28;20025;-57
2024/01/05 06:27:45;;;;;;;11.57;3.90;;;7.80;99.90;;;;;;5032406;28;20029;-56
2024/01/05 06:30:10;;;;;;;16.10;3.70;;;7.80;99.90;;;;;;5032323;28;20029;-53
2024/01/05 06:32:37;;;;;;;11.73;4.32;;;7.80;99.90;;;;;;5014572;28;20378;-52
2024/01/05 06:35:07;;;;;;;8.55;3.90;;;7.80;99.90;;;;;;5014253;28;20080;-53
2024/01/05 06:37:32;;;;;;;8.90;2.90;;;7.90;99.90;;;;;;5014445;28;20029;-55
2024/01/05 06:39:58;;;;;;;10.65;3.35;;;7.90;99.90;;;;;;5014291;28;20393;-55
2024/01/05 06:42:24;;;;;;;17.33;4.10;;;7.90;99.90;;;;;;5014129;28;20049;-56
2024/01/05 06:44:50;;;;;;;13.02;3.55;;;7.90;99.90;;;;;;5031835;28;20021;-56
2024/01/05 06:47:16;;;;;;;9.25;3.08;;;7.90;99.90;;;;;;5031957;28;20018;-53
2024/01/05 06:49:41;;;;;;;11.95;3.55;;;7.80;99.90;;;;;;5032008;28;20021;-57
2024/01/05 06:52:07;;;;;;;11.05;3.72;;;7.80;99.90;;;;;;5014155;28;20025;-56
2024/01/05 06:54:34;;;;;;;11.10;4.43;;;7.80;99.90;;;;;;5013881;28;20057;-54
2024/01/05 06:57:00;;;;;;;8.40;3.38;;;7.80;99.90;;;;;;5013893;28;20061;-57
2024/01/05 06:59:30;;;;;;;10.45;4.00;;;7.70;99.90;;;;;;5031788;28;20049;-58
2024/01/05 07:01:55;;;;;;;9.07;3.83;;;7.80;99.90;;;;;;5014061;28;20021;-57
2024/01/05 07:04:21;;;;;;;12.10;3.38;;;7.70;99.90;;;;;;5013937;28;20116;-57
2024/01/05 07:06:47;;;;;;;6.95;3.55;;;7.70;99.90;;;;;;5014400;28;20017;-56
2024/01/05 07:09:13;;;;;;;11.35;3.85;;;7.70;99.90;;;;;;5014468;28;20037;-59
2024/01/05 07:11:39;;;;;;;7.85;3.45;;;7.80;99.90;;;;;;5032265;28;20025;-58
2024/01/05 07:14:05;;;;;;;7.90;3.45;;;7.80;99.90;;;;;;5032164;28;20048;-56
2024/01/05 07:16:30;;;;;;;11.13;3.95;;;7.80;99.90;;;;;;5032252;28;20481;-57
2024/01/05 07:18:56;;;;;;;6.45;2.75;;;7.80;99.90;;;;;;5014181;28;20030;-57
2024/01/05 07:21:21;;;;;;;11.90;3.75;;;7.80;99.90;;;;;;5014430;28;20531;-56
2024/01/05 07:23:47;;;;;;;11.32;4.22;;;7.90;99.90;;;;;;5036635;28;20025;-55
2024/01/05 07:26:21;;;;;;;13.57;3.53;;;7.80;99.90;;;;;;5030692;28;20031;-53
2024/01/05 07:28:49;;;;;;;13.85;3.85;;;7.80;99.90;;;;;;5047689;28;20032;-49
2024/01/05 07:31:20;;;;;;;7.72;3.17;;;7.80;99.90;;;;;;5047691;28;20021;-49
2024/01/05 07:33:46;;;;;;;10.05;3.70;;;7.70;99.90;;;;;;5035867;28;20021;-56
2024/01/05 07:36:11;;;;;;;13.95;3.92;;;7.70;99.90;;;;;;5017389;28;20033;-49
2024/01/05 07:38:37;;;;;;;9.10;3.53;;;7.60;99.90;;;;;;5021698;28;20028;-53
2024/01/05 07:41:03;;;;;;;17.40;4.03;;;7.60;99.90;;;;;;5039469;28;20029;-54
2024/01/05 07:43:30;;;;;;;8.07;3.70;;;7.60;99.90;;;;;;5033607;28;20029;-51
2024/01/05 07:45:56;;;;;;;10.52;3.50;;;7.60;99.90;;;;;;5051667;28;20025;-50
2024/01/05 07:48:22;;;;;;;12.55;4.05;;;7.60;99.90;;;;;;5051308;28;20052;-53
2024/01/05 07:50:48;;;;;;;11.15;4.10;;;7.60;99.90;;;;;;5048941;28;20033;-52
2024/01/05 07:53:13;;;;;;;9.05;3.70;;;7.60;99.90;;;;;;5045719;28;20025;-51
2024/01/05 07:55:39;;;;;;;10.48;3.88;;;7.70;99.90;;;;;;5050050;28;20488;-52
2024/01/05 07:58:04;;;;;;;13.98;4.10;;;7.80;99.90;;;;;;5055054;28;20039;-46
2024/01/05 08:00:31;;;;;;;9.15;3.85;;;7.70;99.90;;;;;;5051988;28;20040;-49
2024/01/05 08:02:57;;;;;;;7.03;3.30;;;7.80;99.90;;;;;;5045684;28;20045;-52
2024/01/05 08:05:23;;;;;;;16.05;3.67;;;7.90;99.90;;;;;;5025885;28;20024;-51
2024/01/05 08:07:49;;;;;;;10.88;4.28;;;7.90;99.90;;;;;;5035146;28;20022;-52
2024/01/05 08:10:15;;;;;;;12.82;3.42;;;7.90;99.90;;;;;;5035372;28;20507;-48
2024/01/05 08:12:43;;;;;;;13.98;3.92;;;7.90;99.90;;;;;;5035096;28;20025;-51
2024/01/05 08:15:08;;;;;;;14.07;3.22;;;7.90;99.90;;;;;;5018756;28;20369;-48
2024/01/05 08:17:34;;;;;;;7.25;3.55;;;7.90;99.90;;;;;;5034730;28;20035;-53
2024/01/05 08:19:59;;;;;;;7.22;3.60;;;7.80;99.90;;;;;;5035041;28;20503;-51
2024/01/05 08:22:25;;;;;;;8.88;4.00;;;7.90;99.90;;;;;;5035083;28;20017;-54
2024/01/05 08:24:51;;;;;;;7.30;3.22;;;7.90;99.90;;;;;;5034676;28;20014;-50
2024/01/05 08:27:17;;;;;;;11.23;4.35;;;7.90;99.90;;;;;;5034766;28;20473;-49
2024/01/05 08:29:43;;;;;;;12.90;4.00;;;7.90;99.90;;;;;;5017164;28;20065;-51
2024/01/05 08:32:08;;;;;;;7.22;2.72;;;8.00;99.90;;;;;;5034779;28;20477;-49
2024/01/05 08:34:34;;;;;;;8.90;3.85;;;8.10;99.90;;;;;;5034444;28;20026;-52
2024/01/05 08:37:00;;;;;;;3.67;2.33;;;8.10;99.90;;;;;;5034505;28;20405;-54
2024/01/05 08:39:25;;;;;;;9.85;3.72;;;8.10;99.90;;;;;;5016723;28;20025;-50
2024/01/05 08:41:51;;;;;;;9.23;2.95;;;8.00;99.90;;;;;;5034524;28;20021;-52
2024/01/05 08:44:17;;;;;;;11.70;2.85;;;8.10;99.90;;;;;;5034478;28;20036;-55
2024/01/05 08:46:42;;;;;;;9.45;4.32;;;8.10;99.90;;;;;;5034201;28;20559;-52
2024/01/05 08:49:08;;;;;;;13.93;3.80;;;8.10;99.90;;;;;;5034505;28;20026;-47
2024/01/05 08:51:40;;;;;;;13.15;4.90;;;8.20;99.90;;;;;;5034385;28;20535;-49
2024/01/05 08:54:05;;;;;;;8.48;2.80;;;8.10;99.90;;;;;;5035002;28;20021;-51
2024/01/05 08:56:31;;;;;;;14.65;3.38;;;8.20;99.90;;;;;;5021802;28;20051;-52
2024/01/05 08:58:57;;;;;;;17.08;2.95;;;8.20;99.90;;;;;;5040876;28;20412;-51
2024/01/05 09:01:22;;;;;;;7.85;2.67;;;8.20;99.90;;;;;;5034613;28;20117;-49
2024/01/05 09:03:48;;;;;;;11.98;2.83;;;8.30;99.90;;;;;;5042486;28;20028;-49
2024/01/05 09:06:13;;;;;;;5.55;2.60;;;8.40;99.90;;;;;;5033190;28;20530;-49
2024/01/05 09:08:39;;;;;;;8.48;2.97;;;8.70;99.90;;;;;;5034477;28;20100;-51
2024/01/05 09:11:04;;;;;;;9.18;2.60;;;8.80;99.90;;;;;;5016688;28;20488;-50
2024/01/05 09:13:30;;;;;;;6.60;3.67;;;9.30;99.90;;;;;;5033845;28;20036;-52
2024/01/05 09:15:56;;;;;;;9.10;2.65;;;9.60;99.90;;;;;;5034671;28;20025;-48
2024/01/05 09:18:21;;;;;;;8.60;2.90;;;9.80;99.90;;;;;;5038429;28;20612;-51
2024/01/05 09:20:53;;;;;;;8.98;2.83;;;10.00;99.90;;;;;;5039831;28;20507;-54
2024/01/05 09:23:19;;;;;;;3.80;2.33;;;10.00;99.90;;;;;;5035203;28;20025;-52
2024/01/05 09:25:44;;;;;;;11.18;3.70;;;10.00;99.90;;;;;;5053433;28;20443;-50
2024/01/05 09:28:10;;;;;;;6.90;2.45;;;9.90;99.90;;;;;;5052313;28;20029;-51
2024/01/05 09:30:36;;;;;;;10.50;3.10;;;9.70;99.90;;;;;;5050466;28;20031;-55
2024/01/05 09:33:02;;;;;;;6.28;2.60;;;9.70;99.90;;;;;;5026648;28;20657;-51
2024/01/05 09:35:28;;;;;;;12.32;2.90;;;9.50;99.90;;;;;;5035574;28;20029;-55
2024/01/05 09:37:53;;;;;;;5.60;2.65;;;9.40;99.90;;;;;;5046030;28;20036;-51
2024/01/05 09:40:20;;;;;;;10.00;3.83;;;9.30;99.90;;;;;;5015698;28;20025;-49
2024/01/05 09:42:50;;;;;;;9.30;2.97;;;9.30;99.90;;;;;;5033408;28;20040;-53
2024/01/05 09:45:18;;;;;;;6.75;2.97;;;9.40;99.90;;;;;;5033540;28;20093;-47
2024/01/05 09:47:44;;;;;;;8.50;2.78;;;9.50;99.90;;;;;;5036286;28;20085;-49
2024/01/05 09:50:12;;;;;;;7.75;2.80;;;9.60;99.90;;;;;;5045514;28;20484;-47
2024/01/05 09:52:38;;;;;;;8.20;3.40;;;9.70;99.90;;;;;;5033753;28;20018;-49
2024/01/05 09:55:04;;;;;;;6.68;2.70;;;9.70;99.90;;;;;;5032771;28;20159;-48
2024/01/05 09:57:30;;;;;;;15.25;3.40;;;9.70;99.90;;;;;;5043429;28;20119;-49
2024/01/05 09:59:58;;;;;;;11.27;2.92;;;9.60;99.90;;;;;;5045845;28;20029;-49
2024/01/05 10:02:32;;;;;;;19.08;3.72;;;9.60;99.90;;;;;;5022363;28;20033;-50
2024/01/05 10:04:58;;;;;;;12.05;5.00;;;9.60;99.90;;;;;;5044661;28;20021;-50
2024/01/05 10:07:23;;;;;;;9.63;3.13;;;9.50;99.90;;;;;;5032768;28;20032;-48
2024/01/05 10:09:53;;;;;;;7.53;2.88;;;9.50;99.90;;;;;;5032710;28;20060;-48
2024/01/05 10:12:19;;;;;;;8.45;2.50;;;9.50;99.90;;;;;;5032702;28;20055;-49
2024/01/05 10:14:47;;;;;;;5.82;2.70;;;9.50;99.90;;;;;;5032313;28;20061;-49
2024/01/05 10:17:15;;;;;;;9.98;2.63;;;9.60;99.90;;;;;;5032425;28;20392;-51
2024/01/05 10:19:41;;;;;;;5.90;3.35;;;9.50;99.90;;;;;;5032760;28;20078;-50
2024/01/05 10:22:11;;;;;;;6.97;3.28;;;9.40;99.90;;;;;;5032830;28;20477;-52
2024/01/05 10:24:38;;;;;;;3.60;2.40;;;9.40;99.90;;;;;;5032616;28;20108;-48
2024/01/05 10:27:07;;;;;;;9.68;3.10;;;9.40;99.90;;;;;;5032671;28;20032;-48
2024/01/05 10:29:36;;;;;;;10.20;2.88;;;9.40;99.90;;;;;;5032423;28;20067;-50
2024/01/05 10:32:14;;;;;;;6.88;3.65;;;9.50;99.90;;;;;;5032441;28;20036;-48
2024/01/05 10:34:41;;;;;;;7.55;3.38;;;9.50;99.90;;;;;;5031676;28;20400;-47
2024/01/05 10:37:08;;;;;;;6.82;2.95;;;9.50;99.90;;;;;;5032551;28;20112;-48
2024/01/05 10:39:34;;;;;;;8.02;3.20;;;9.50;99.90;;;;;;5030467;28;20211;-48
2024/01/05 10:42:19;;;;;;;11.20;3.58;;;9.50;99.90;;;;;;5029661;28;20048;-49
2024/01/05 10:44:46;;;;;;;10.45;3.33;;;9.60;99.90;;;;;;5030510;28;20013;-50
2024/01/05 10:47:15;;;;;;;9.05;2.97;;;9.60;99.90;;;;;;5030850;28;20400;-51
2024/01/05 10:49:51;;;;;;;5.55;2.75;;;9.60;99.90;;;;;;5013122;28;20037;-51
2024/01/05 10:52:18;;;;;;;5.35;2.55;;;9.60;99.90;;;;;;5031934;28;20083;-49
2024/01/05 10:54:47;;;;;;;5.30;2.25;;;9.70;99.90;;;;;;5031763;28;20397;-53
2024/01/05 10:57:14;;;;;;;3.30;2.15;;;9.70;99.90;;;;;;5032327;28;20051;-49
2024/01/05 10:59:46;;;;;;;6.78;2.88;;;9.80;99.90;;;;;;5032183;28;20401;-51
2024/01/05 11:02:21;;;;;;;8.05;2.55;;;9.80;99.90;;;;;;5032087;28;20116;-51
2024/01/05 11:04:54;;;;;;;6.28;2.30;;;9.90;99.90;;;;;;5032119;28;20045;-53
2024/01/05 11:07:23;;;;;;;5.72;2.78;;;10.00;99.90;;;;;;5032303;28;20056;-51
2024/01/05 11:09:59;;;;;;;5.32;2.40;;;10.00;99.90;;;;;;5032306;28;20100;-51
2024/01/05 11:12:39;;;;;;;15.00;3.08;;;10.10;99.90;;;;;;5032032;28;20512;-52
2024/01/05 11:15:28;;;;;;;7.30;2.10;;;10.10;99.90;;;;;;5031832;28;20481;-50
2024/01/05 11:18:29;;;;;;;6.18;1.88;;;10.10;99.90;;;;;;5032663;28;20428;-53
2024/01/05 11:21:11;;;;;;;5.93;2.25;;;10.10;99.90;;;;;;5032408;28;20041;-50
2024/01/05 11:23:40;;;;;;;19.02;7.18;;;10.10;99.90;;;;;;5031934;28;20033;-51
2024/01/05 11:26:06;;;;;;;5.28;2.75;;;10.20;99.90;;;;;;5032196;28;20028;-52
2024/01/05 11:28:35;;;;;;;8.40;2.53;;;10.20;99.90;;;;;;5033994;28;20022;-49
2024/01/05 11:31:01;;;;;;;6.25;2.35;;;10.20;99.90;;;;;;5035507;28;20033;-50
2024/01/05 11:33:42;;;;;;;6.30;1.98;;;10.30;99.90;;;;;;5034719;28;20033;-46
2024/01/05 11:36:07;;;;;;;5.85;1.58;;;10.40;99.90;;;;;;5035279;28;20040;-58
2024/01/05 11:38:33;;;;;;;5.05;1.67;;;10.30;99.90;;;;;;5035344;28;20026;-55
2024/01/05 11:40:59;;;;;;;7.07;1.90;;;10.30;99.90;;;;;;5034879;28;20033;-52
2024/01/05 11:43:28;;;;;;;7.00;2.08;;;10.40;99.90;;;;;;5034719;28;20017;-51
2024/01/05 11:45:54;;;;;;;5.88;2.45;;;10.40;99.90;;;;;;5017080;28;20500;-47
2024/01/05 11:48:35;;;;;;;4.72;1.90;;;10.50;99.90;;;;;;5037355;28;20032;-49
2024/01/05 11:51:07;;;;;;;6.88;2.88;;;10.50;99.90;;;;;;5035535;28;20036;-47
2024/01/05 11:53:33;;;;;;;6.15;1.55;;;10.60;99.90;;;;;;5035370;28;20030;-47
2024/01/05 11:56:10;;;;;;;3.47;1.88;;;;;;;;;;5035618;28;20104;-47
2024/01/05 11:58:36;;;;;;;8.35;2.20;;;10.60;99.90;;;;;;5035948;28;20163;-48
2024/01/05 12:01:10;;;;;;;6.25;1.88;;;10.60;99.90;;;;;;5017872;28;20109;-48
2024/01/05 12:03:39;;;;;;;5.57;1.65;;;10.60;99.90;;;;;;5035488;28;20420;-47
2024/01/05 12:06:09;;;;;;;4.97;1.58;;;10.60;99.90;;;;;;5036190;28;20020;-47
2024/01/05 12:08:35;;;;;;;3.42;1.77;;;10.50;99.90;;;;;;5035594;28;20121;-47
2024/01/05 12:11:05;;;;;;;7.72;2.00;;;10.50;99.90;;;;;;5035599;28;20053;-49
2024/01/05 12:13:33;;;;;;;7.15;2.45;;;10.50;99.90;;;;;;5035488;28;20034;-46
2024/01/05 12:16:03;;;;;;;6.40;1.50;;;10.40;99.90;;;;;;5036097;28;20021;-47
2024/01/05 12:18:30;;;;;;;9.43;1.90;;;10.40;99.90;;;;;;5036072;28;20464;-44
2024/01/05 12:21:01;;;;;;;6.70;2.22;;;10.30;99.90;;;;;;5017633;28;20124;-46
2024/01/05 12:23:28;;;;;;;3.72;2.00;;;10.30;99.90;;;;;;5034984;28;20045;-48
2024/01/05 12:26:10;;;;;;;4.90;1.90;;;10.40;99.90;;;;;;5035272;28;20018;-47
2024/01/05 12:28:37;;;;;;;13.13;4.60;;;10.40;99.90;;;;;;5035184;28;20508;-46
2024/01/05 12:31:05;;;;;;;8.15;4.32;;;10.50;99.90;;;;;;5037504;28;20043;-50
2024/01/05 12:33:33;;;;;;;5.32;3.03;;;10.50;99.90;;;;;;5052894;28;20029;-51
2024/01/05 12:35:59;;;;;;;7.85;1.83;;;10.50;99.90;;;;;;5046719;28;20102;-48
2024/01/05 12:38:31;;;;;;;5.95;2.40;;;10.60;99.90;;;;;;5034625;28;20029;-53
2024/01/05 12:41:10;;;;;;;5.50;2.08;;;10.60;99.90;;;;;;5047427;28;20032;-50
2024/01/05 12:43:36;;;;;;;6.35;1.92;;;10.60;99.90;;;;;;5054325;28;20025;-50
2024/01/05 12:46:04;;;;;;;10.02;2.08;;;10.50;99.90;;;;;;5052383;28;20029;-48
2024/01/05 12:48:31;;;;;;;2.55;1.58;;;10.50;99.90;;;;;;5046595;28;20064;-50